Time;durP1;ratioP1;P1;durP2;ratioP2;P2;SDS_P1;SDS_P2;PMS_P1;PMS_P2;Temp;Humidity;BMP_temperature;BMP_pressure;BME280_temperature;BME280_humidity;BME280_pressure;Samples;Min_cycle;Max_cycle;Signal;HPM_P1;HPM_P2
2022/06/01 00:00:42;;;;;;;22.13;18.52;;;;;;;14.09;87.64;99751.13;5019337;28;20100;-79
2022/06/01 00:03:07;;;;;;;21.67;19.08;;;;;;;14.05;87.98;99746.84;5018487;28;20060;-79
2022/06/01 00:05:33;;;;;;;21.05;18.85;;;;;;;14.05;88.16;99751.19;4999144;28;20494;-79
2022/06/01 00:07:59;;;;;;;;;;;;;;;14.08;88.08;99752.00;5017983;28;20080;-79
2022/06/01 00:10:24;;;;;;;19.95;17.85;;;;;;;13.91;86.51;99748.81;5018256;28;19924;-80
2022/06/01 00:12:50;;;;;;;21.85;18.20;;;;;;;13.84;86.95;99745.47;5025320;28;20030;-80
2022/06/01 00:15:17;;;;;;;;;;;;;;;13.91;87.54;99748.81;5032669;28;20041;-79
2022/06/01 00:17:42;;;;;;;18.65;16.65;;;;;;;13.79;86.99;99734.25;5015230;28;19924;-79
2022/06/01 00:20:09;;;;;;;18.55;16.65;;;;;;;13.81;87.18;99744.63;5031922;28;20030;-79
2022/06/01 00:22:36;;;;;;;19.00;17.00;;;;;;;13.80;87.44;99741.16;5002464;28;20034;-78
2022/06/01 00:25:04;;;;;;;19.67;17.55;;;;;;;13.83;87.39;99741.09;5058208;28;20548;-78
2022/06/01 00:27:30;;;;;;;18.50;16.10;;;;;;;13.80;87.30;99746.38;5030392;28;20025;-79
2022/06/01 00:29:57;;;;;;;18.42;16.60;;;;;;;13.79;87.37;99739.47;5028237;28;20513;-79
2022/06/01 00:32:22;;;;;;;21.23;18.98;;;;;;;13.78;87.37;99748.13;5025452;28;20034;-79
2022/06/01 00:34:48;;;;;;;20.60;18.23;;;;;;;13.77;87.58;99756.00;5022974;28;20127;-79
2022/06/01 00:37:14;;;;;;;19.70;17.65;;;;;;;13.76;87.87;99749.06;5017130;28;20065;-82
2022/06/01 00:39:39;;;;;;;20.02;17.88;;;;;;;13.70;86.77;99747.44;5029788;28;20468;-80
2022/06/01 00:42:12;;;;;;;;;;;;;;;13.73;87.28;99748.22;5022543;28;20083;-79
2022/06/01 00:44:38;;;;;;;20.70;15.75;;;;;;;13.56;85.90;99746.75;5020335;28;19921;-79
2022/06/01 00:47:04;;;;;;;15.57;13.95;;;;;;;13.43;85.46;99743.47;5024057;28;20025;-79
2022/06/01 00:49:30;;;;;;;15.98;13.85;;;;;;;13.39;85.39;99760.03;5025986;28;20439;-80
2022/06/01 00:51:55;;;;;;;14.73;13.07;;;;;;;13.31;84.68;99754.91;5026971;28;20095;-80
2022/06/01 00:54:21;;;;;;;;;;;;;;;13.37;85.36;99764.38;5023436;28;20037;-80
2022/06/01 00:56:53;;;;;;;12.75;11.45;;;;;;;13.21;84.60;99761.97;5028944;28;19932;-79
2022/06/01 00:59:21;;;;;;;15.65;14.07;;;;;;;13.15;85.40;99754.25;5001302;28;20396;-79
2022/06/01 01:01:46;;;;;;;13.52;12.13;;;;;;;13.15;85.99;99748.19;5000767;28;20038;-80
2022/06/01 01:04:12;;;;;;;14.98;12.75;;;;;;;13.19;86.45;99750.72;4997351;28;20044;-79
2022/06/01 01:06:39;;;;;;;16.40;14.65;;;;;;;13.21;85.75;99753.31;5016234;28;20037;-79
2022/06/01 01:09:06;;;;;;;15.30;13.57;;;;;;;13.14;85.42;99756.84;5022110;28;20037;-80
2022/06/01 01:11:39;;;;;;;16.58;13.65;;;;;;;13.11;85.58;99760.38;5006697;28;20033;-79
2022/06/01 01:14:08;;;;;;;15.40;13.80;;;;;;;13.09;85.48;99758.66;4993769;28;20046;-80
2022/06/01 01:16:34;;;;;;;17.67;14.13;;;;;;;13.06;85.76;99766.53;5021712;28;20092;-79
2022/06/01 01:19:00;;;;;;;19.40;15.23;;;;;;;13.03;86.24;99767.41;5003547;28;20057;-80
2022/06/01 01:21:36;;;;;;;15.65;13.60;;;;;;;12.98;86.01;99774.44;5013899;28;20036;-78
2022/06/01 01:24:23;;;;;;;29.98;14.77;;;;;;;13.00;86.54;99774.41;5007317;28;20103;-78
2022/06/01 01:26:49;;;;;;;;;;;;;;;13.05;86.42;99770.00;5021379;28;20046;-80
2022/06/01 01:29:15;;;;;;;15.25;13.65;;;;;;;12.96;86.07;99770.97;5008258;28;19920;-79
2022/06/01 01:31:43;;;;;;;16.27;13.40;;;;;;;12.95;86.44;99775.31;5030385;28;20476;-79
2022/06/01 01:34:09;;;;;;;17.58;14.68;;;;;;;12.97;86.74;99776.16;4981238;28;20144;-79
2022/06/01 01:36:45;;;;;;;14.85;13.35;;;;;;;12.97;86.49;99778.78;5014560;28;20556;-79
2022/06/01 01:39:12;;;;;;;15.63;14.00;;;;;;;12.94;86.69;99777.94;5029383;28;20529;-79
2022/06/01 01:41:43;;;;;;;15.45;13.85;;;;;;;12.96;86.46;99782.22;4982619;28;20947;-79
2022/06/01 01:44:18;;;;;;;15.30;13.65;;;;;;;12.93;85.90;99786.63;5028938;28;20557;-78
2022/06/01 01:46:47;;;;;;;15.27;13.75;;;;;;;12.92;85.67;99805.72;5010071;28;20115;-79
2022/06/01 01:49:17;;;;;;;15.57;13.98;;;;;;;12.85;85.38;99791.94;5012591;28;20491;-79
2022/06/01 01:51:43;;;;;;;14.50;13.00;;;;;;;12.77;84.62;99796.34;5023656;28;20061;-79
2022/06/01 01:54:31;;;;;;;15.15;13.30;;;;;;;12.75;84.48;99792.91;5020794;28;20039;-77
2022/06/01 01:57:06;;;;;;;17.65;13.43;;;;;;;12.70;84.45;99802.53;5026535;28;20120;-78
2022/06/01 01:59:51;;;;;;;17.23;13.25;;;;;;;12.71;84.77;99794.69;5030204;28;20080;-79
2022/06/01 02:02:32;;;;;;;18.13;12.82;;;;;;;12.68;84.62;99794.69;5027634;28;20086;-79
2022/06/01 02:08:02;;;;;;;13.57;12.05;;;;;;;12.67;84.71;99799.94;5014640;28;20045;-78
2022/06/01 02:13:12;;;;;;;12.40;10.73;;;;;;;12.63;84.83;99793.88;5028727;28;20507;-78
2022/06/01 02:15:38;;;;;;;;;;;;;;;12.70;85.04;99798.16;5023325;28;20100;-79
2022/06/01 02:18:10;;;;;;;13.23;11.83;;;;;;;12.65;85.10;99797.34;5020001;28;20020;-78
2022/06/01 02:20:44;;;;;;;18.30;16.33;;;;;;;12.67;86.21;99792.13;5025767;28;20041;-79
2022/06/01 02:23:11;;;;;;;15.70;14.10;;;;;;;12.75;86.18;99797.25;5012119;28;20045;-78
2022/06/01 02:25:38;;;;;;;14.45;12.40;;;;;;;12.78;86.14;99787.66;4997724;28;20038;-78
2022/06/01 02:28:04;;;;;;;18.50;16.45;;;;;;;12.87;86.83;99777.13;5018090;28;20037;-79
2022/06/01 02:30:33;;;;;;;;;;;;;;;13.07;87.56;99781.25;5013541;28;20091;-79
2022/06/01 02:33:00;;;;;;;25.77;22.92;;;;;;;13.14;87.53;99781.16;5013502;28;19979;-78
2022/06/01 02:35:27;;;;;;;26.60;23.75;;;;;;;13.26;87.76;99789.75;4998183;28;20084;-78
2022/06/01 02:37:55;;;;;;;28.00;24.02;;;;;;;13.38;87.84;99786.97;4991074;28;20045;-78
2022/06/01 02:40:22;;;;;;;30.85;26.80;;;;;;;13.53;87.65;99781.56;5013409;28;20388;-78
2022/06/01 02:42:52;;;;;;;26.42;22.50;;;;;;;13.61;87.88;99782.31;5015464;28;20046;-78
2022/06/01 02:45:20;;;;;;;25.77;21.48;;;;;;;13.83;87.50;99797.59;5017456;28;20153;-79
2022/06/01 02:47:45;;;;;;;31.40;24.83;;;;;;;13.88;87.75;99793.19;5019528;28;20428;-79
2022/06/01 02:50:16;;;;;;;25.75;20.90;;;;;;;13.99;87.49;99802.56;4997420;28;20050;-79
2022/06/01 02:52:42;;;;;;;31.08;22.83;;;;;;;13.99;86.94;99807.78;5021266;28;20519;-79
2022/06/01 02:55:09;;;;;;;26.30;21.00;;;;;;;14.13;86.79;99804.97;5029966;28;20037;-80
2022/06/01 02:57:38;;;;;;;28.02;21.80;;;;;;;14.19;86.74;99807.47;5015072;28;20125;-79
2022/06/01 03:00:04;;;;;;;27.58;20.40;;;;;;;14.24;86.39;99815.22;5001376;28;20076;-79
2022/06/01 03:02:30;;;;;;;26.00;20.55;;;;;;;14.22;86.56;99819.63;5015101;28;20497;-79
2022/06/01 03:04:56;;;;;;;25.65;20.90;;;;;;;14.20;86.55;99814.44;5021182;28;20033;-79
2022/06/01 03:07:22;;;;;;;27.25;20.08;;;;;;;14.19;87.06;99804.00;5023215;28;20042;-79
2022/06/01 03:09:47;;;;;;;;;;;;;;;14.36;87.83;99806.34;5022545;28;20397;-79
2022/06/01 03:12:13;;;;;;;31.25;20.02;;;;;;;14.37;87.37;99789.78;5029911;28;19917;-79
2022/06/01 03:14:39;;;;;;;;;;;;;;;14.55;87.31;99805.16;5029112;28;20045;-79
2022/06/01 03:17:05;;;;;;;28.10;19.98;;;;;;;14.51;86.58;99806.09;5028806;28;19921;-79
2022/06/01 03:19:30;;;;;;;26.25;19.23;;;;;;;14.54;86.59;99810.41;5023400;28;20104;-79
2022/06/01 03:21:56;;;;;;;28.75;20.50;;;;;;;14.53;86.56;99804.31;5025565;28;20041;-79
2022/06/01 03:24:22;;;;;;;29.92;21.17;;;;;;;14.52;86.26;99809.56;5030957;28;20029;-79
2022/06/01 03:26:48;;;;;;;32.20;21.35;;;;;;;14.49;86.86;99813.09;5017306;28;20045;-79
2022/06/01 03:29:14;;;;;;;26.58;19.52;;;;;;;14.53;87.47;99812.16;5031317;28;20029;-80
2022/06/01 03:31:40;;;;;;;29.23;20.05;;;;;;;14.64;87.40;99811.97;5017949;28;20038;-79
2022/06/01 03:34:06;;;;;;;27.30;19.90;;;;;;;14.67;86.96;99804.94;5026405;28;20168;-81
2022/06/01 03:36:32;;;;;;;26.88;18.95;;;;;;;14.68;86.94;99811.00;5007171;28;20056;-80
2022/06/01 03:38:58;;;;;;;24.92;19.13;;;;;;;14.72;86.74;99810.06;5022880;28;20041;-81
2022/06/01 03:41:27;;;;;;;25.10;19.13;;;;;;;14.71;86.46;99804.00;5016641;28;20170;-81
2022/06/01 03:46:38;;;;;;;23.95;18.90;;;;;;;14.74;86.00;99819.56;5009536;28;20048;-80
2022/06/01 03:49:03;;;;;;;23.40;18.27;;;;;;;14.81;86.72;99825.56;5019756;28;20492;-77
2022/06/01 03:51:29;;;;;;;22.40;18.20;;;;;;;14.85;86.31;99824.63;5032789;28;20878;-79
2022/06/01 03:53:55;;;;;;;25.63;19.55;;;;;;;14.90;85.94;99827.16;5021674;28;20033;-83
2022/06/01 03:56:22;;;;;;;24.02;19.70;;;;;;;14.78;85.64;99815.16;5003099;28;20555;-77
2022/06/01 03:58:49;;;;;;;26.55;21.08;;;;;;;14.92;86.10;99833.19;5012105;28;20037;-85
2022/06/01 04:01:15;;;;;;;25.67;21.92;;;;;;;14.93;86.21;99830.53;4981489;28;20041;-84
2022/06/01 04:03:40;;;;;;;26.20;21.60;;;;;;;15.03;86.45;99835.59;4974779;28;20373;-85
2022/06/01 04:06:06;;;;;;;27.42;22.75;;;;;;;14.97;86.13;99815.66;4997914;28;20042;-85
2022/06/01 04:08:32;;;;;;;25.95;21.23;;;;;;;15.04;86.33;99822.50;5012508;28;20030;-85
2022/06/01 04:10:58;;;;;;;23.77;20.42;;;;;;;15.11;85.79;99824.09;4993811;28;20107;-85
2022/06/01 04:13:24;;;;;;;23.00;20.45;;;;;;;15.15;86.10;99823.16;5013058;28;20029;-85
2022/06/01 04:15:50;;;;;;;22.40;19.90;;;;;;;15.22;85.91;99822.16;5032704;28;20051;-85
2022/06/01 04:18:16;;;;;;;25.23;19.92;;;;;;;15.18;85.23;99810.03;5015884;28;20034;-85
2022/06/01 04:20:42;;;;;;;15.90;13.13;;;;;;;15.34;85.46;99828.84;4996664;28;20497;-84
2022/06/01 04:23:07;;;;;;;21.58;16.40;;;;;;;15.38;84.68;99808.75;5040067;28;20401;-86
2022/06/01 04:25:33;;;;;;;21.90;18.55;;;;;;;15.49;83.51;99825.06;5015048;28;20069;-85
2022/06/01 04:27:59;;;;;;;22.52;19.55;;;;;;;15.42;83.76;99802.56;5006555;28;20113;-85
2022/06/01 04:30:25;;;;;;;23.80;19.30;;;;;;;15.49;83.78;99812.88;5018395;28;20048;-86
2022/06/01 04:32:51;;;;;;;22.92;20.52;;;;;;;15.48;83.32;99805.88;5008933;28;20045;-84
2022/06/01 04:35:18;;;;;;;22.98;19.65;;;;;;;15.53;83.31;99811.00;5002461;28;20045;-84
2022/06/01 04:37:44;;;;;;;23.40;20.88;;;;;;;15.52;83.66;99801.47;4987538;28;20128;-85
2022/06/01 04:40:10;;;;;;;22.67;20.25;;;;;;;15.63;83.87;99812.56;5018771;28;20083;-86
2022/06/01 04:42:38;;;;;;;24.17;21.48;;;;;;;15.74;83.21;99815.81;4998891;28;20118;-85
2022/06/01 04:45:04;;;;;;;25.85;19.50;;;;;;;15.92;82.70;99808.44;5017068;28;20033;-84
2022/06/01 04:47:30;;;;;;;17.05;15.23;;;;;;;16.06;81.04;99818.56;4999997;28;20052;-85
2022/06/01 04:49:56;;;;;;;21.05;16.83;;;;;;;16.21;80.80;99813.81;5033480;28;20045;-84
2022/06/01 04:52:21;;;;;;;24.80;17.52;;;;;;;16.25;79.50;99810.22;5016878;28;20036;-85
2022/06/01 04:54:47;;;;;;;23.92;18.13;;;;;;;16.36;79.09;99819.59;5030416;28;20057;-84
2022/06/01 04:57:13;;;;;;;27.08;18.98;;;;;;;16.38;79.13;99817.78;5016433;28;20501;-85
2022/06/01 04:59:39;;;;;;;20.67;17.92;;;;;;;16.40;79.09;99823.84;4999860;28;20045;-86
2022/06/01 05:02:05;;;;;;;20.90;17.77;;;;;;;16.36;79.29;99807.38;5004769;28;20033;-85
2022/06/01 05:04:31;;;;;;;23.40;18.38;;;;;;;16.37;78.49;99819.56;4995189;28;20182;-86
2022/06/01 05:06:57;;;;;;;24.17;18.58;;;;;;;16.31;79.42;99810.97;5028848;28;20029;-85
2022/06/01 05:09:22;;;;;;;24.00;18.35;;;;;;;16.30;79.82;99812.72;5025285;28;20570;-84
2022/06/01 05:11:48;;;;;;;21.83;17.85;;;;;;;16.27;80.01;99813.69;5012851;28;20034;-85
2022/06/01 05:14:14;;;;;;;22.88;18.20;;;;;;;16.32;79.48;99810.09;5009814;28;20509;-85
2022/06/01 05:16:39;;;;;;;19.92;16.13;;;;;;;16.37;79.01;99808.22;4992042;28;20044;-85
2022/06/01 05:19:05;;;;;;;16.00;13.65;;;;;;;16.56;78.34;99819.94;4997995;28;20134;-84
2022/06/01 05:21:31;;;;;;;21.25;17.67;;;;;;;16.56;77.73;99812.06;5013555;28;20029;-88
2022/06/01 05:23:57;;;;;;;22.45;18.27;;;;;;;16.50;77.52;99807.88;5015709;28;20064;-84
2022/06/01 05:26:23;;;;;;;21.50;18.13;;;;;;;16.54;78.27;99821.75;4995379;28;20034;-85
2022/06/01 05:28:49;;;;;;;22.90;17.83;;;;;;;16.46;78.64;99818.47;5027425;28;20048;-84
2022/06/01 05:31:14;;;;;;;20.33;17.40;;;;;;;16.35;78.56;99807.38;5000063;28;20026;-85
2022/06/01 05:33:43;;;;;;;21.67;17.40;;;;;;;16.46;78.48;99821.94;5000784;28;20068;-86
2022/06/01 05:36:09;;;;;;;18.73;15.15;;;;;;;16.48;78.33;99803.56;5004397;28;20097;-85
2022/06/01 05:38:35;;;;;;;25.25;17.90;;;;;;;16.59;77.82;99808.53;5000333;28;20048;-86
2022/06/01 05:41:01;;;;;;;26.75;19.63;;;;;;;16.49;77.95;99794.78;4997018;28;20033;-84
2022/06/01 05:43:27;;;;;;;25.20;18.92;;;;;;;16.51;78.13;99812.19;5009024;28;20037;-85
2022/06/01 05:45:52;;;;;;;22.33;18.55;;;;;;;16.44;78.42;99799.28;4998732;28;20481;-85
2022/06/01 05:48:19;;;;;;;26.23;18.65;;;;;;;16.36;78.84;99780.31;5023995;28;20034;-85
2022/06/01 05:50:45;;;;;;;25.95;18.52;;;;;;;16.54;78.79;99800.81;5004173;28;20029;-87
2022/06/01 05:53:10;;;;;;;24.52;18.88;;;;;;;16.55;78.20;99802.50;5011204;28;20394;-86
2022/06/01 05:55:36;;;;;;;25.48;20.23;;;;;;;16.46;78.00;99802.75;5016019;28;20120;-86
2022/06/01 05:58:26;;;;;;;21.67;16.52;;;;;;;16.49;79.24;99805.25;4987817;28;20109;-85
2022/06/01 06:00:52;;;;;;;23.83;20.15;;;;;;;16.42;78.78;99786.25;5016911;28;20041;-86
2022/06/01 06:03:19;;;;;;;25.60;19.77;;;;;;;16.58;78.43;99797.16;4993278;28;20029;-85
2022/06/01 06:08:30;;;;;;;18.70;15.38;;;;;;;16.53;78.81;99784.19;5012935;28;20036;-86
2022/06/01 06:10:55;;;;;;;21.42;18.25;;;;;;;16.66;78.01;99787.34;5014378;28;20037;-85
2022/06/01 06:13:21;;;;;;;26.52;20.90;;;;;;;16.64;77.46;99780.47;5001490;28;20049;-86
2022/06/01 06:15:48;;;;;;;23.30;19.02;;;;;;;16.81;77.59;99791.34;4998509;28;20037;-87
2022/06/01 06:18:14;;;;;;;24.58;19.17;;;;;;;16.89;76.86;99793.75;5024818;28;20137;-85
2022/06/01 06:20:46;;;;;;;24.23;19.35;;;;;;;16.99;76.51;99797.84;5015506;28;20120;-85
2022/06/01 06:23:12;;;;;;;19.88;17.73;;;;;;;17.00;76.48;99808.31;5011123;28;20523;-85
2022/06/01 06:25:42;;;;;;;25.92;19.95;;;;;;;16.85;76.30;99779.03;5027565;28;20038;-87
2022/06/01 06:28:08;;;;;;;22.20;18.73;;;;;;;16.93;76.46;99782.31;4986352;28;20041;-85
2022/06/01 06:30:35;;;;;;;17.88;15.07;;;;;;;16.97;76.27;99791.78;4990330;28;20405;-85
2022/06/01 06:33:00;;;;;;;22.38;17.08;;;;;;;17.08;75.50;99787.09;5047867;28;20502;-87
2022/06/01 06:35:26;;;;;;;23.38;17.20;;;;;;;17.08;75.49;99794.09;5027958;28;20080;-86
2022/06/01 06:37:52;;;;;;;19.70;15.30;;;;;;;17.16;75.33;99790.34;5021760;28;20446;-86
2022/06/01 06:40:17;;;;;;;20.58;16.92;;;;;;;17.25;74.48;99781.38;5008361;28;20030;-86
2022/06/01 06:42:43;;;;;;;17.83;15.20;;;;;;;17.40;73.79;99787.91;5043394;28;20060;-86
2022/06/01 06:45:09;;;;;;;22.38;17.92;;;;;;;17.46;73.46;99790.38;5010600;28;20524;-87
2022/06/01 06:47:35;;;;;;;18.00;15.52;;;;;;;17.50;73.92;99800.72;5022550;28;20416;-85
2022/06/01 06:50:03;;;;;;;19.70;17.42;;;;;;;17.51;73.83;99798.97;5012253;28;20041;-85
2022/06/01 06:52:29;;;;;;;23.33;18.55;;;;;;;17.54;74.01;99798.84;4984961;28;20094;-85
2022/06/01 06:54:54;;;;;;;22.45;18.02;;;;;;;17.48;73.97;99792.03;4988246;28;20030;-88
2022/06/01 06:57:20;;;;;;;24.77;18.40;;;;;;;17.47;73.72;99792.94;5003916;28;20046;-84
2022/06/01 06:59:48;;;;;;;18.85;16.73;;;;;;;17.59;74.10;99810.06;5002200;28;20038;-86
2022/06/01 07:02:15;;;;;;;19.10;16.40;;;;;;;17.58;74.03;99797.00;5040018;28;20046;-85
2022/06/01 07:04:41;;;;;;;22.50;18.60;;;;;;;17.62;74.11;99803.88;5036186;28;20144;-86
2022/06/01 07:07:07;;;;;;;21.75;16.80;;;;;;;17.48;73.79;99802.53;5024087;28;20042;-85
2022/06/01 07:09:32;;;;;;;16.17;12.60;;;;;;;17.58;72.09;99779.50;5034681;28;20029;-85
2022/06/01 07:11:58;;;;;;;17.50;14.38;;;;;;;17.84;71.16;99793.59;5004393;28;20042;-86
2022/06/01 07:14:24;;;;;;;19.20;16.10;;;;;;;17.97;70.71;99792.31;5004280;28;20496;-86
2022/06/01 07:16:49;;;;;;;22.73;18.10;;;;;;;17.90;71.12;99793.41;5005388;28;20107;-86
2022/06/01 07:19:15;;;;;;;18.40;13.80;;;;;;;18.15;69.80;99804.84;5001287;28;20050;-86
2022/06/01 07:21:42;;;;;;;18.50;12.60;;;;;;;18.19;69.24;99801.22;5017726;28;20112;-86
2022/06/01 07:24:07;;;;;;;16.02;12.30;;;;;;;18.31;68.85;99797.28;4989678;28;20287;-86
2022/06/01 07:26:42;;;;;;;22.75;18.55;;;;;;;18.36;69.79;99810.28;4989574;28;20046;-87
2022/06/01 07:29:08;;;;;;;23.17;18.60;;;;;;;18.28;70.06;99805.31;5023808;28;20573;-87
2022/06/01 07:31:33;;;;;;;20.10;17.25;;;;;;;18.37;69.81;99806.72;5008498;28;20033;-86
2022/06/01 07:33:59;;;;;;;26.83;19.98;;;;;;;18.32;70.00;99801.63;5024614;28;20053;-86
2022/06/01 07:36:27;;;;;;;26.00;19.20;;;;;;;18.36;70.73;99820.78;4989775;28;20053;-89
2022/06/01 07:44:30;;;;;;;30.63;20.88;;;;;;;18.40;70.44;99809.25;5033830;28;20041;-86
2022/06/01 07:46:56;;;;;;;27.80;21.23;;;;;;;18.46;70.60;99824.81;4972414;28;20474;-86
2022/06/01 07:49:23;;;;;;;28.38;20.33;;;;;;;18.31;70.77;99801.69;5000758;28;20073;-88
2022/06/01 07:51:48;;;;;;;24.95;19.80;;;;;;;18.34;70.63;99804.22;5020638;28;20033;-86
2022/06/01 07:54:14;;;;;;;30.13;21.80;;;;;;;18.41;70.57;99819.72;5009257;28;20554;-91
2022/06/01 07:56:40;;;;;;;25.75;20.98;;;;;;;18.48;71.19;99829.09;4988256;28;20064;-86
2022/06/01 07:59:06;;;;;;;18.08;15.27;;;;;;;18.53;70.09;99821.06;5018902;28;20080;-86
2022/06/01 08:01:35;;;;;;;24.25;19.00;;;;;;;18.74;69.66;99833.50;5010090;28;20030;-85
2022/06/01 08:04:02;;;;;;;18.17;15.15;;;;;;;18.77;68.20;99833.38;5037214;28;20040;-86
2022/06/01 08:06:28;;;;;;;27.42;20.95;;;;;;;18.76;68.57;99828.19;5004020;28;20063;-86
2022/06/01 08:08:54;;;;;;;24.88;20.42;;;;;;;18.81;69.37;99833.28;5003240;28;20037;-85
2022/06/01 08:11:20;;;;;;;24.85;20.60;;;;;;;18.84;68.84;99831.41;4983659;28;20141;-88
2022/06/01 08:13:46;;;;;;;25.38;20.33;;;;;;;18.81;69.17;99818.38;5023035;28;20128;-85
2022/06/01 08:16:12;;;;;;;26.08;20.33;;;;;;;18.83;69.33;99834.97;5019855;28;20526;-88
2022/06/01 08:18:38;;;;;;;25.10;19.20;;;;;;;18.74;69.67;99814.25;5007246;28;20030;-88
2022/06/01 08:21:04;;;;;;;25.55;21.08;;;;;;;18.82;69.50;99821.84;4993197;28;20420;-89
2022/06/01 08:23:31;;;;;;;24.10;19.20;;;;;;;18.96;69.29;99841.47;5020490;28;20045;-87
2022/06/01 08:25:57;;;;;;;21.23;17.20;;;;;;;18.95;69.06;99834.50;4993490;28;20038;-86
2022/06/01 08:28:23;;;;;;;26.40;20.55;;;;;;;19.08;69.30;99832.31;4985675;28;20053;-87
2022/06/01 08:30:49;;;;;;;24.80;19.55;;;;;;;19.04;68.69;99809.66;4991390;28;20040;-86
2022/06/01 08:33:15;;;;;;;21.80;18.85;;;;;;;19.14;69.06;99816.28;4994319;28;20037;-86
2022/06/01 08:35:43;;;;;;;20.67;16.38;;;;;;;19.42;67.99;99829.28;5003777;28;20037;-86
2022/06/01 08:38:09;;;;;;;24.35;19.05;;;;;;;19.70;67.66;99829.13;4996722;28;20181;-87
2022/06/01 08:40:53;;;;;;;22.73;18.63;;;;;;;19.88;66.54;99829.31;5027099;28;20022;-86
2022/06/01 08:43:22;;;;;;;23.70;17.38;;;;;;;20.02;65.86;99832.25;5014055;28;20034;-87
2022/06/01 08:45:50;;;;;;;23.35;18.23;;;;;;;20.04;65.47;99827.78;5003672;28;20034;-86
2022/06/01 08:48:18;;;;;;;19.67;16.05;;;;;;;20.19;64.66;99831.56;4991650;28;20093;-86
2022/06/01 08:50:44;;;;;;;20.92;18.63;;;;;;;20.25;64.40;99824.28;4985735;28;20041;-88
2022/06/01 08:53:09;;;;;;;20.35;17.17;;;;;;;20.41;64.13;99828.91;5032154;28;20061;-86
2022/06/01 08:55:46;;;;;;;20.88;17.77;;;;;;;20.59;63.88;99836.09;5001819;28;20497;-86
2022/06/01 08:58:18;;;;;;;17.23;13.95;;;;;;;20.90;62.85;99825.06;4997399;28;20501;-86
2022/06/01 09:01:02;;;;;;;16.70;14.60;;;;;;;21.32;61.41;99816.19;5034403;28;20559;-87
2022/06/01 09:03:32;;;;;;;18.27;14.98;;;;;;;21.85;59.77;99814.59;5004678;28;20049;-86
2022/06/01 09:06:05;;;;;;;17.67;14.55;;;;;;;22.31;58.55;99808.81;5002764;28;20048;-87
2022/06/01 09:08:52;;;;;;;17.20;14.15;;;;;;;22.57;56.55;99788.13;4999658;28;20049;-86
2022/06/01 09:11:38;;;;;;;16.83;13.35;;;;;;;23.04;55.96;99792.75;5003677;28;20034;-87
2022/06/01 09:14:18;;;;;;;16.75;13.60;;;;;;;23.61;53.94;99806.41;4993493;28;20141;-86
2022/06/01 09:16:47;;;;;;;22.23;13.80;;;;;;;23.74;53.24;99810.13;5023510;28;20120;-86
2022/06/01 09:19:27;;;;;;;14.80;13.27;;;;;;;23.69;53.10;99800.72;4987775;28;20038;-86
2022/06/01 09:24:47;;;;;;;17.10;13.57;;;;;;;23.32;53.42;99792.97;5002888;28;20118;-86
2022/06/01 09:27:13;;;;;;;18.55;14.05;;;;;;;23.29;53.43;99789.66;4985854;28;20029;-87
2022/06/01 09:29:46;;;;;;;15.70;12.65;;;;;;;23.31;54.45;99801.84;5022031;28;20475;-88
2022/06/01 09:32:32;;;;;;;15.88;13.32;;;;;;;23.24;54.42;99805.78;5019729;28;20044;-87
2022/06/01 09:35:03;;;;;;;17.15;13.10;;;;;;;23.45;53.75;99806.38;4983350;28;20081;-89
2022/06/01 09:37:32;;;;;;;16.55;12.65;;;;;;;23.80;53.03;99804.47;4999631;28;20509;-87
2022/06/01 09:40:04;;;;;;;14.52;12.32;;;;;;;23.96;52.13;99780.63;5002656;28;20396;-86
2022/06/01 09:42:38;;;;;;;13.40;11.52;;;;;;;24.10;52.46;99785.13;5031787;28;20405;-90
2022/06/01 09:45:21;;;;;;;15.68;13.45;;;;;;;23.96;52.23;99790.34;4992934;28;20489;-84
2022/06/01 09:47:50;;;;;;;14.98;12.90;;;;;;;23.76;52.03;99784.38;5007874;28;20458;-86
2022/06/01 09:50:33;;;;;;;14.60;11.25;;;;;;;23.65;52.22;99788.59;4986029;28;20034;-87
2022/06/01 09:53:16;;;;;;;17.20;12.20;;;;;;;23.57;53.38;99783.69;5003455;28;20060;-87
2022/06/01 09:56:01;;;;;;;15.45;12.18;;;;;;;23.80;53.11;99796.50;4958738;28;20034;-87
2022/06/01 10:06:54;;;;;;;16.10;11.40;;;;;;;25.81;47.24;99782.59;4996065;28;20121;-88
2022/06/01 10:09:25;;;;;;;13.57;12.00;;;;;;;25.56;47.97;99787.75;5012649;28;20037;-88
2022/06/01 10:11:51;;;;;;;14.40;10.95;;;;;;;25.14;48.30;99792.16;5003250;28;20501;-88
2022/06/01 10:14:24;;;;;;;12.45;11.15;;;;;;;24.93;48.96;99793.47;5002025;28;20087;-87
2022/06/01 10:17:14;;;;;;;13.98;10.55;;;;;;;24.94;49.06;99785.41;5004041;28;20069;-87
2022/06/01 10:19:41;;;;;;;12.13;10.20;;;;;;;25.05;48.43;99785.59;4993902;28;20070;-86
2022/06/01 10:22:13;;;;;;;12.55;10.30;;;;;;;25.31;48.31;99775.19;5011724;28;20040;-87
2022/06/01 10:24:53;;;;;;;13.63;10.43;;;;;;;25.60;47.84;99762.69;5021928;28;20053;-90
2022/06/01 10:27:21;;;;;;;15.73;11.65;;;;;;;25.77;47.29;99762.50;5004879;28;20069;-86
2022/06/01 10:29:56;;;;;;;12.85;9.10;;;;;;;26.10;46.23;99761.22;5019246;28;20060;-86
2022/06/01 10:32:43;;;;;;;13.83;10.37;;;;;;;26.39;46.15;99769.03;4989348;28;20128;-88
2022/06/01 10:35:31;;;;;;;10.93;9.73;;;;;;;26.44;45.49;99774.94;5009702;28;20296;-86
2022/06/01 10:38:05;;;;;;;11.65;9.50;;;;;;;26.16;45.56;99747.53;5038117;28;20409;-87
2022/06/01 10:40:55;;;;;;;14.63;10.70;;;;;;;26.02;45.74;99771.50;4995436;28;20037;-88
2022/06/01 10:43:45;;;;;;;10.85;9.13;;;;;;;25.97;46.99;99752.34;4987773;28;20504;-87
2022/06/01 10:46:27;;;;;;;13.90;10.38;;;;;;;26.19;45.90;99773.03;5042174;28;20034;-88
2022/06/01 10:49:27;;;;;;;12.85;10.48;;;;;;;26.03;45.30;99751.97;5019319;28;20049;-87
2022/06/01 10:52:29;;;;;;;12.50;10.30;;;;;;;26.02;46.57;99763.53;5017588;28;20045;-87
2022/06/01 10:55:21;;;;;;;17.15;10.52;;;;;;;25.92;46.12;99767.75;5007705;28;20098;-86
2022/06/01 10:57:48;;;;;;;10.80;9.68;;;;;;;25.70;46.00;99745.19;5034502;28;20041;-88
2022/06/01 11:00:16;;;;;;;11.98;9.63;;;;;;;25.96;46.18;99750.66;4995785;28;20125;-87
2022/06/01 11:03:10;;;;;;;11.18;9.30;;;;;;;26.27;45.35;99758.28;5005054;28;20132;-86
2022/06/01 11:05:41;;;;;;;11.05;8.77;;;;;;;26.34;45.07;99756.94;5041585;28;20037;-88
2022/06/01 11:08:07;;;;;;;11.60;8.82;;;;;;;26.47;43.92;99753.44;5025656;28;20057;-87
2022/06/01 11:10:43;;;;;;;12.85;9.07;;;;;;;26.74;44.50;99734.72;5024191;28;20038;-90
2022/06/01 11:13:13;;;;;;;10.07;8.93;;;;;;;27.21;43.18;99736.69;5021341;28;20069;-87
2022/06/01 11:15:44;;;;;;;10.85;8.60;;;;;;;27.63;41.56;99747.88;5012478;28;20408;-89
2022/06/01 11:18:45;;;;;;;9.63;8.43;;;;;;;27.45;42.73;99759.88;5037164;28;20132;-87
2022/06/01 11:21:23;;;;;;;10.52;9.43;;;;;;;26.95;43.80;99740.34;5021063;28;20148;-87
2022/06/01 11:24:04;;;;;;;10.07;9.05;;;;;;;26.73;44.04;99754.31;5018051;28;20117;-87
2022/06/01 11:27:03;;;;;;;10.82;8.30;;;;;;;26.61;44.04;99754.19;5032034;28;20034;-90
2022/06/01 11:29:58;;;;;;;10.40;8.88;;;;;;;26.42;44.65;99744.88;5039146;28;20034;-87
2022/06/01 11:32:45;;;;;;;9.48;8.05;;;;;;;26.33;44.91;99747.22;5036743;28;20037;-92
2022/06/01 11:35:14;;;;;;;12.45;10.05;;;;;;;26.12;46.05;99755.81;5015764;28;20065;-87
2022/06/01 11:37:55;;;;;;;11.05;8.70;;;;;;;25.93;45.82;99753.50;5022503;28;20053;-87
2022/06/01 11:40:38;;;;;;;12.00;8.68;;;;;;;25.69;46.79;99742.66;5042825;28;20558;-90
2022/06/01 11:43:14;;;;;;;10.98;9.07;;;;;;;25.44;46.58;99733.63;5026786;28;20037;-87
2022/06/01 11:46:20;;;;;;;11.75;8.85;;;;;;;25.31;47.73;99752.13;5042636;28;20044;-89
2022/06/01 11:48:53;;;;;;;13.25;9.88;;;;;;;25.14;48.47;99756.81;4975690;28;20050;-89
2022/06/01 11:51:26;;;;;;;12.60;9.98;;;;;;;24.96;48.80;99764.06;5013678;28;20072;-86
2022/06/01 11:54:04;;;;;;;9.77;8.32;;;;;;;24.93;48.44;99759.84;4998804;28;20038;-88
2022/06/01 11:56:32;;;;;;;11.52;9.02;;;;;;;24.89;48.72;99760.13;5070517;28;20060;-87
2022/06/01 11:58:58;;;;;;;12.48;9.85;;;;;;;24.74;49.81;99749.50;5014946;28;20045;-88
2022/06/01 12:01:35;;;;;;;13.98;9.95;;;;;;;24.58;50.24;99754.00;5024666;28;20041;-90